Time;durP1;ratioP1;P1;durP2;ratioP2;P2;SDS_P1;SDS_P2;PMS_P1;PMS_P2;Temp;Humidity;BMP_temperature;BMP_pressure;BME280_temperature;BME280_humidity;BME280_pressure;Samples;Min_cycle;Max_cycle;Signal;HPM_P1;HPM_P2
2023/01/28 00:00:07;;;;;;;15.35;13.95;;;;;;;2.48;92.76;102836.75;5061200;28;20028;-78
2023/01/28 00:02:34;;;;;;;15.48;14.07;;;;;;;2.46;92.54;102840.25;5035919;28;20024;-78
2023/01/28 00:04:59;;;;;;;15.90;14.50;;;;;;;2.49;93.13;102840.22;5069743;28;20078;-79
2023/01/28 00:07:26;;;;;;;15.20;13.80;;;;;;;2.47;92.51;102845.41;5068780;28;20467;-78
2023/01/28 00:09:52;;;;;;;15.15;13.70;;;;;;;2.48;92.08;102841.94;5068187;28;20476;-80
2023/01/28 00:12:17;;;;;;;15.50;13.98;;;;;;;2.47;91.40;102844.56;5039297;28;20044;-78
2023/01/28 00:14:45;;;;;;;15.07;13.68;;;;;;;2.46;92.27;102848.88;5051567;28;20102;-77
2023/01/28 00:17:11;;;;;;;14.48;13.18;;;;;;;2.43;92.30;102848.06;5061497;28;20051;-78
2023/01/28 00:19:37;;;;;;;13.48;12.27;;;;;;;2.42;91.43;102851.53;5069095;28;20396;-78
2023/01/28 00:22:03;;;;;;;14.18;12.90;;;;;;;2.43;91.77;102851.50;5068005;28;20016;-78
2023/01/28 00:24:29;;;;;;;14.25;12.95;;;;;;;2.42;91.09;102857.59;5067116;28;20074;-78
2023/01/28 00:26:55;;;;;;;14.75;13.35;;;;;;;2.42;91.60;102849.78;5068321;28;20032;-78
2023/01/28 00:29:21;;;;;;;14.40;13.10;;;;;;;2.40;91.80;102853.25;5066623;28;20059;-80
2023/01/28 00:31:46;;;;;;;15.43;13.93;;;;;;;2.38;91.69;102849.81;5062801;28;20032;-80
2023/01/28 00:34:12;;;;;;;15.50;14.10;;;;;;;2.35;92.36;102849.81;5053815;28;20028;-80
2023/01/28 00:36:38;;;;;;;15.00;13.60;;;;;;;2.36;92.11;102857.59;5071933;28;20032;-80
2023/01/28 00:39:10;;;;;;;14.80;13.45;;;;;;;2.35;92.51;102868.00;5072110;28;20028;-80
2023/01/28 00:41:36;;;;;;;14.75;13.35;;;;;;;2.36;92.83;102867.13;5072056;28;20023;-80
2023/01/28 00:44:02;;;;;;;14.63;13.32;;;;;;;2.36;93.41;102872.31;5052271;28;20028;-80
2023/01/28 00:46:27;;;;;;;15.02;13.63;;;;;;;2.34;92.78;102863.69;5069773;28;20039;-80
2023/01/28 00:48:53;;;;;;;14.63;13.23;;;;;;;2.33;92.16;102870.63;5055393;28;20032;-80
2023/01/28 00:51:19;;;;;;;14.57;13.18;;;;;;;2.30;91.33;102857.66;5060794;28;20039;-80
2023/01/28 00:53:48;;;;;;;16.02;14.43;;;;;;;2.27;91.02;102862.00;5069744;28;20028;-80
2023/01/28 00:56:16;;;;;;;14.70;13.30;;;;;;;2.24;90.50;102867.22;5070149;28;20055;-80
2023/01/28 00:58:44;;;;;;;15.30;13.80;;;;;;;2.26;90.66;102860.28;5052978;28;20515;-80
2023/01/28 01:01:14;;;;;;;15.95;14.45;;;;;;;2.24;90.14;102864.63;5052478;28;20157;-80
2023/01/28 01:03:40;;;;;;;15.75;14.25;;;;;;;2.22;90.24;102875.03;5069018;28;20598;-80
2023/01/28 01:06:07;;;;;;;15.13;13.73;;;;;;;2.22;90.51;102875.03;5051872;28;20092;-80
2023/01/28 01:08:38;;;;;;;15.50;13.90;;;;;;;2.22;90.99;102875.03;5052930;28;20029;-80
2023/01/28 01:11:06;;;;;;;14.85;13.40;;;;;;;2.22;91.74;102874.16;5038839;28;20025;-80
2023/01/28 01:13:33;;;;;;;14.82;13.43;;;;;;;2.18;92.13;102868.13;5054607;28;20039;-78
2023/01/28 01:16:12;;;;;;;15.10;13.63;;;;;;;2.17;92.07;102867.28;5051788;28;20020;-78
2023/01/28 01:18:40;;;;;;;14.77;13.45;;;;;;;2.16;91.78;102870.75;5070324;28;20059;-78
2023/01/28 01:21:13;;;;;;;14.50;13.07;;;;;;;2.15;92.18;102868.16;5069200;28;20244;-78
2023/01/28 01:23:39;;;;;;;14.90;13.20;;;;;;;2.15;92.04;102869.03;5050294;28;20029;-78
2023/01/28 01:26:05;;;;;;;14.18;12.82;;;;;;;2.13;89.96;102875.97;5033221;28;20112;-78
2023/01/28 01:28:31;;;;;;;14.68;13.15;;;;;;;2.16;89.92;102869.88;5060485;28;20044;-78
2023/01/28 01:31:06;;;;;;;13.63;12.35;;;;;;;2.15;89.70;102873.34;5052919;28;20430;-79
2023/01/28 01:33:33;;;;;;;14.32;12.93;;;;;;;2.17;89.87;102861.22;5070565;28;20111;-78
2023/01/28 01:35:58;;;;;;;15.15;13.63;;;;;;;2.12;90.47;102863.00;5072057;28;20111;-78
2023/01/28 01:38:24;;;;;;;14.63;13.23;;;;;;;2.13;90.23;102859.53;5069441;28;20802;-79
2023/01/28 01:40:50;;;;;;;14.13;12.80;;;;;;;2.12;90.68;102863.84;5060576;28;20025;-79
2023/01/28 01:43:20;;;;;;;14.70;13.30;;;;;;;2.12;91.29;102860.38;5049679;28;20024;-79
2023/01/28 01:45:52;;;;;;;15.77;14.20;;;;;;;2.12;90.09;102863.84;5050341;28;20036;-79
2023/01/28 01:48:27;;;;;;;16.15;14.55;;;;;;;2.11;89.84;102864.72;5047033;28;20037;-79
2023/01/28 01:51:07;;;;;;;16.15;14.65;;;;;;;2.10;89.59;102865.59;5039756;28;20052;-79
2023/01/28 01:53:35;;;;;;;15.82;14.32;;;;;;;2.08;89.33;102871.66;5070282;28;20027;-79
2023/01/28 01:56:07;;;;;;;15.15;13.75;;;;;;;2.07;90.09;102865.63;5071209;28;20071;-79
2023/01/28 01:58:36;;;;;;;16.88;15.35;;;;;;;2.08;89.55;102876.88;5062808;28;20099;-79
2023/01/28 02:01:03;;;;;;;15.40;13.90;;;;;;;2.09;90.25;102868.19;5065613;28;20511;-79
2023/01/28 02:03:37;;;;;;;15.93;14.43;;;;;;;2.09;89.84;102870.81;5051563;28;20028;-79
2023/01/28 02:06:03;;;;;;;15.20;13.80;;;;;;;2.08;90.43;102871.66;5052911;28;20469;-79
2023/01/28 02:08:29;;;;;;;15.95;14.35;;;;;;;2.10;90.80;102869.94;5066340;28;20047;-79
2023/01/28 02:11:00;;;;;;;15.23;13.82;;;;;;;2.08;91.69;102869.94;5069124;28;20054;-79
2023/01/28 02:13:31;;;;;;;15.15;13.65;;;;;;;2.05;91.20;102872.56;5050425;28;20035;-79
2023/01/28 02:15:59;;;;;;;15.55;14.02;;;;;;;2.06;92.46;102879.47;5065576;28;20032;-79
2023/01/28 02:18:27;;;;;;;16.00;14.40;;;;;;;2.04;92.09;102878.63;5068940;28;20032;-79
2023/01/28 02:21:34;;;;;;;15.20;13.80;;;;;;;2.01;92.20;102875.19;5070135;28;20038;-79
2023/01/28 02:24:19;;;;;;;15.57;14.07;;;;;;;2.05;90.80;102879.47;5007892;28;20048;-79
2023/01/28 02:27:21;;;;;;;17.13;15.45;;;;;;;2.01;91.11;102876.03;5009293;28;20399;-78
2023/01/28 02:29:57;;;;;;;16.58;14.98;;;;;;;1.99;89.78;102874.28;5060211;28;20480;-79
2023/01/28 02:32:38;;;;;;;15.57;14.18;;;;;;;1.97;89.88;102873.44;5063778;28;20020;-79
2023/01/28 02:35:21;;;;;;;16.42;14.93;;;;;;;2.00;90.50;102865.63;5068184;28;20111;-79
2023/01/28 02:37:54;;;;;;;15.45;13.95;;;;;;;1.99;89.41;102866.50;5051481;28;20039;-79
2023/01/28 02:40:28;;;;;;;15.73;14.13;;;;;;;1.98;89.58;102869.97;5070342;28;20036;-79
2023/01/28 02:42:56;;;;;;;15.70;14.10;;;;;;;1.94;89.75;102871.72;5051794;28;20504;-79
2023/01/28 02:48:16;;;;;;;16.08;14.57;;;;;;;1.97;90.50;102866.53;5060371;28;20114;-79
2023/01/28 02:51:08;;;;;;;15.68;14.15;;;;;;;2.00;91.18;102865.63;5047555;28;20018;-79
2023/01/28 02:53:49;;;;;;;14.20;12.90;;;;;;;1.95;90.98;102875.19;5050032;28;20504;-79
2023/01/28 02:56:21;;;;;;;15.77;14.18;;;;;;;1.95;91.70;102877.78;5043826;28;20035;-79
2023/01/28 02:58:46;;;;;;;14.55;13.18;;;;;;;1.95;91.36;102882.97;5050398;28;20476;-79
2023/01/28 03:01:26;;;;;;;14.13;12.82;;;;;;;1.92;91.13;102880.41;5067628;28;20066;-79
2023/01/28 03:04:36;;;;;;;14.65;13.25;;;;;;;1.94;91.74;102881.25;5067814;28;20101;-80
2023/01/28 03:07:08;;;;;;;14.70;13.30;;;;;;;1.88;90.96;102877.81;5060019;28;20056;-79
2023/01/28 03:09:36;;;;;;;14.27;12.98;;;;;;;1.89;91.09;102882.13;5069494;28;20070;-80
2023/01/28 03:37:32;;;;;;;12.93;11.63;;;;;;;1.77;87.39;102889.13;5066351;28;20141;-80
2023/01/28 03:40:05;;;;;;;12.60;11.50;;;;;;;1.75;86.38;102890.88;5066305;28;20488;-80
2023/01/28 03:42:30;;;;;;;12.63;11.43;;;;;;;1.77;86.60;102889.13;5048123;28;20025;-80
2023/01/28 03:44:56;;;;;;;12.13;11.02;;;;;;;1.77;86.52;102882.22;5036941;28;20051;-79
2023/01/28 03:47:25;;;;;;;13.18;11.88;;;;;;;1.77;86.30;102891.72;5051091;28;20035;-80
2023/01/28 03:49:53;;;;;;;12.48;11.30;;;;;;;1.77;86.07;102887.41;5050673;28;20029;-80
2023/01/28 03:52:24;;;;;;;12.65;11.52;;;;;;;1.76;86.87;102884.81;5067533;28;20490;-80
2023/01/28 03:54:51;;;;;;;11.98;10.88;;;;;;;1.78;88.02;102883.06;5069620;28;20055;-78
2023/01/28 03:57:23;;;;;;;12.02;10.90;;;;;;;1.71;87.87;102886.56;5041030;28;20048;-79
2023/01/28 03:59:49;;;;;;;12.67;11.57;;;;;;;1.70;88.66;102890.91;5047600;28;20024;-80
2023/01/28 04:02:15;;;;;;;13.27;11.98;;;;;;;1.70;89.49;102896.09;5053700;28;20035;-80
2023/01/28 04:04:41;;;;;;;13.73;12.52;;;;;;;1.68;89.98;102907.34;5048192;28;20030;-79
2023/01/28 04:07:09;;;;;;;15.40;13.90;;;;;;;1.71;91.00;102904.72;5068564;28;20102;-79
2023/01/28 04:09:35;;;;;;;14.93;13.52;;;;;;;1.68;90.98;102908.22;5071632;28;20025;-79
2023/01/28 04:12:01;;;;;;;15.50;14.00;;;;;;;1.71;91.26;102908.19;5073045;28;20028;-79
2023/01/28 04:14:26;;;;;;;14.52;13.23;;;;;;;1.67;91.67;102916.84;5062631;28;20035;-79
2023/01/28 04:16:53;;;;;;;15.80;14.20;;;;;;;1.64;92.26;102910.81;5052338;28;20029;-79
2023/01/28 04:19:20;;;;;;;16.00;14.50;;;;;;;1.67;92.64;102916.00;5055990;28;20479;-79
2023/01/28 04:21:49;;;;;;;15.55;14.13;;;;;;;1.66;92.81;102911.69;5052358;28;20052;-79
2023/01/28 04:24:17;;;;;;;15.90;14.32;;;;;;;1.65;93.86;102912.53;5036894;28;20033;-79
2023/01/28 04:26:42;;;;;;;15.93;14.32;;;;;;;1.67;93.42;102909.06;5034951;28;20033;-79
2023/01/28 04:29:07;;;;;;;17.00;15.30;;;;;;;1.68;94.07;102912.53;5051218;28;20059;-79
2023/01/28 04:31:37;;;;;;;17.08;15.35;;;;;;;1.66;93.68;102915.13;5047392;28;20510;-79
2023/01/28 04:34:02;;;;;;;16.85;15.25;;;;;;;1.65;93.64;102913.41;5072329;28;20029;-79
2023/01/28 04:36:28;;;;;;;16.52;14.95;;;;;;;1.61;93.97;102906.50;5071594;28;20346;-79
2023/01/28 04:38:53;;;;;;;17.00;15.27;;;;;;;1.68;93.85;102910.81;5070582;28;20060;-79
2023/01/28 04:41:20;;;;;;;18.42;16.55;;;;;;;1.64;94.22;102913.41;5071564;28;20019;-79
2023/01/28 04:43:48;;;;;;;17.02;15.43;;;;;;;1.65;94.49;102915.13;5071496;28;20024;-79
2023/01/28 04:46:15;;;;;;;17.15;15.45;;;;;;;1.61;94.54;102916.03;5055791;28;20496;-79
2023/01/28 04:48:41;;;;;;;16.80;15.20;;;;;;;1.60;94.51;102903.88;5051901;28;20024;-79
2023/01/28 04:51:07;;;;;;;18.08;16.27;;;;;;;1.58;94.48;102901.31;5037139;28;20028;-79
2023/01/28 04:53:32;;;;;;;17.63;15.93;;;;;;;1.59;94.97;102908.22;5072799;28;20036;-79
2023/01/28 04:55:59;;;;;;;18.70;16.70;;;;;;;1.60;95.07;102909.94;5066912;28;20030;-79
2023/01/28 04:58:24;;;;;;;17.98;16.00;;;;;;;1.61;94.54;102905.66;5051899;28;20432;-79
2023/01/28 05:00:57;;;;;;;21.15;16.30;;;;;;;1.60;94.66;102912.53;5068681;28;20441;-79
2023/01/28 05:03:23;;;;;;;18.50;16.70;;;;;;;1.58;94.38;102911.69;5035375;28;20036;-79
2023/01/28 05:05:49;;;;;;;17.13;15.48;;;;;;;1.55;94.47;102919.47;5062888;28;20451;-79
2023/01/28 05:08:15;;;;;;;18.13;16.30;;;;;;;1.54;94.70;102909.97;5054026;28;20124;-79
2023/01/28 05:10:40;;;;;;;18.27;16.48;;;;;;;1.56;94.93;102918.59;5070851;28;20050;-78
2023/01/28 05:13:06;;;;;;;18.20;16.50;;;;;;;1.53;95.22;102918.63;5071506;28;20017;-79
2023/01/28 05:15:32;;;;;;;18.73;16.85;;;;;;;1.52;94.89;102916.88;5072289;28;20058;-78
2023/01/28 05:17:58;;;;;;;18.40;16.63;;;;;;;1.52;94.96;102917.75;5066575;28;20024;-79
2023/01/28 05:20:24;;;;;;;18.38;16.55;;;;;;;1.50;94.79;102927.28;5071904;28;20020;-78
2023/01/28 05:22:49;;;;;;;18.17;16.38;;;;;;;1.49;95.51;102933.31;5068437;28;20542;-79
2023/01/28 05:25:15;;;;;;;17.77;16.08;;;;;;;1.50;95.30;102934.19;5052955;28;20032;-79
2023/01/28 05:27:40;;;;;;;18.13;16.40;;;;;;;1.49;94.94;102922.94;5053551;28;20078;-78
2023/01/28 05:30:06;;;;;;;18.52;16.38;;;;;;;1.51;95.24;102918.63;5071055;28;20029;-79
2023/01/28 05:32:32;;;;;;;19.48;16.58;;;;;;;1.47;95.53;102921.22;5070153;28;20056;-78
2023/01/28 05:34:58;;;;;;;17.98;16.17;;;;;;;1.47;95.18;102916.91;5055176;28;20029;-79
2023/01/28 05:37:23;;;;;;;17.50;15.77;;;;;;;1.45;95.32;102913.47;5050698;28;20115;-78
2023/01/28 05:39:49;;;;;;;21.15;16.45;;;;;;;1.48;95.36;102910.00;5050506;28;20020;-79
2023/01/28 05:42:14;;;;;;;18.38;16.40;;;;;;;1.47;94.86;102903.94;5070916;28;20028;-79
2023/01/28 05:44:42;;;;;;;18.20;16.30;;;;;;;1.42;93.92;102912.59;5070651;28;20059;-80
2023/01/28 05:47:07;;;;;;;17.45;15.75;;;;;;;1.44;95.05;102908.28;5069704;28;20075;-78
2023/01/28 05:49:33;;;;;;;17.52;15.73;;;;;;;1.47;94.42;102905.66;5069110;28;20465;-78
2023/01/28 05:52:00;;;;;;;17.20;15.00;;;;;;;1.42;94.18;102910.88;5050345;28;20525;-79
2023/01/28 05:54:25;;;;;;;16.52;14.90;;;;;;;1.43;94.28;102906.56;5061913;28;20024;-79
2023/01/28 05:56:51;;;;;;;16.40;14.80;;;;;;;1.41;93.68;102916.94;5070679;28;20032;-79
2023/01/28 05:59:17;;;;;;;16.90;15.30;;;;;;;1.40;92.81;102919.53;5051530;28;20052;-79
2023/01/28 06:01:42;;;;;;;16.40;14.68;;;;;;;1.42;92.63;102920.38;5070254;28;20028;-78
2023/01/28 06:04:07;;;;;;;15.57;13.98;;;;;;;1.40;90.95;102911.75;5052111;28;20488;-78
2023/01/28 06:06:33;;;;;;;15.48;12.70;;;;;;;1.38;89.86;102918.66;5063679;28;20105;-79
2023/01/28 06:08:58;;;;;;;14.00;12.65;;;;;;;1.36;90.20;102926.44;5069564;28;20052;-79
2023/01/28 06:11:23;;;;;;;13.43;11.77;;;;;;;1.37;89.84;102932.50;5052077;28;20289;-78
2023/01/28 06:13:49;;;;;;;13.40;12.02;;;;;;;1.34;88.09;102928.19;5068679;28;20070;-79
2023/01/28 06:16:14;;;;;;;13.07;11.70;;;;;;;1.30;87.77;102931.66;5052729;28;20039;-79
2023/01/28 06:18:40;;;;;;;12.75;11.55;;;;;;;1.29;87.38;102939.44;5071250;28;20086;-79
2023/01/28 06:21:06;;;;;;;13.38;12.05;;;;;;;1.31;86.69;102935.13;5070175;28;20028;-79
2023/01/28 06:23:31;;;;;;;12.20;11.00;;;;;;;1.27;85.43;102939.44;5059834;28;20077;-78
2023/01/28 06:25:57;;;;;;;12.52;11.32;;;;;;;1.28;85.15;102933.38;5068620;28;20468;-79
2023/01/28 06:28:26;;;;;;;12.70;11.40;;;;;;;1.22;84.09;102929.09;5068987;28;20056;-79
2023/01/28 06:30:52;;;;;;;11.60;10.50;;;;;;;1.27;84.46;102933.41;5069887;28;20024;-78
2023/01/28 06:33:19;;;;;;;12.07;10.90;;;;;;;1.28;84.86;102936.00;5050398;28;20043;-79
2023/01/28 06:35:44;;;;;;;12.70;11.55;;;;;;;1.24;nan;102932.53;5052052;28;20032;-79
2023/01/28 06:38:11;;;;;;;12.23;10.98;;;;;;;1.29;85.42;102934.25;5069911;28;20528;-78
2023/01/28 06:40:37;;;;;;;12.00;10.90;;;;;;;1.24;84.67;102939.47;5062820;28;20111;-79
2023/01/28 06:43:03;;;;;;;13.13;11.93;;;;;;;1.27;84.84;102936.84;5067575;28;20166;-79
2023/01/28 06:45:28;;;;;;;13.00;11.68;;;;;;;1.27;85.37;102939.44;5070203;28;20495;-79
2023/01/28 06:47:54;;;;;;;13.05;11.65;;;;;;;1.29;86.13;102940.31;5052267;28;20047;-79
2023/01/28 06:50:20;;;;;;;13.68;12.38;;;;;;;1.29;86.87;102940.31;5050672;28;20400;-79
2023/01/28 06:52:46;;;;;;;13.48;12.10;;;;;;;1.28;86.82;102950.69;5062437;28;20032;-79
2023/01/28 06:55:11;;;;;;;14.68;13.27;;;;;;;1.29;86.65;102942.91;5069086;28;20028;-79
2023/01/28 06:57:38;;;;;;;14.70;13.30;;;;;;;1.24;86.62;102942.91;5070402;28;20024;-78
2023/01/28 07:00:09;;;;;;;14.73;13.32;;;;;;;1.23;85.56;102950.69;5071625;28;20064;-79
2023/01/28 07:02:35;;;;;;;15.38;13.95;;;;;;;1.21;85.44;102942.06;5069739;28;20064;-79
2023/01/28 07:05:01;;;;;;;14.77;13.25;;;;;;;1.23;86.06;102940.31;5070144;28;20025;-79
2023/01/28 07:07:26;;;;;;;15.10;13.50;;;;;;;1.22;86.42;102948.97;5069541;28;20032;-79
2023/01/28 07:09:51;;;;;;;15.43;13.90;;;;;;;1.27;86.26;102954.13;5069076;28;20027;-79
2023/01/28 07:12:17;;;;;;;15.90;14.25;;;;;;;1.25;86.97;102952.41;5069736;28;20021;-79
2023/01/28 07:14:42;;;;;;;15.35;13.88;;;;;;;1.28;87.00;102948.09;5038304;28;20021;-79
2023/01/28 07:17:07;;;;;;;14.77;13.27;;;;;;;1.24;86.00;102953.28;5064802;28;20063;-79
2023/01/28 07:19:33;;;;;;;15.52;14.02;;;;;;;1.24;85.44;102963.66;5055425;28;20023;-79
2023/01/28 07:22:01;;;;;;;15.90;14.30;;;;;;;1.25;86.69;102964.50;5069085;28;20040;-79
2023/01/28 07:24:28;;;;;;;15.60;14.00;;;;;;;1.23;85.74;102967.09;5050257;28;20032;-79
2023/01/28 07:26:53;;;;;;;18.10;14.48;;;;;;;1.23;85.87;102974.03;5051143;28;20047;-79
2023/01/28 07:29:20;;;;;;;16.17;14.52;;;;;;;1.19;84.31;102975.72;5067893;28;20040;-79
2023/01/28 07:31:48;;;;;;;16.60;15.00;;;;;;;1.19;82.72;102980.91;5068819;28;20020;-79
2023/01/28 07:34:14;;;;;;;15.57;14.10;;;;;;;1.24;82.48;102978.34;5059275;28;20116;-79
2023/01/28 07:36:40;;;;;;;16.48;14.90;;;;;;;1.22;83.22;102988.72;5063676;28;20099;-78
2023/01/28 07:39:08;;;;;;;16.52;14.82;;;;;;;1.18;81.96;102989.56;5063236;28;20494;-80
2023/01/28 07:41:33;;;;;;;15.63;13.95;;;;;;;1.17;82.57;102982.66;5049999;28;20358;-79
2023/01/28 07:43:58;;;;;;;16.17;14.57;;;;;;;1.18;83.11;102976.59;5049651;28;20015;-77
2023/01/28 07:46:24;;;;;;;16.17;14.57;;;;;;;1.14;82.92;102987.84;5048115;28;20035;-77
2023/01/28 07:48:51;;;;;;;16.00;14.43;;;;;;;1.12;83.96;102984.38;5063313;28;20023;-76
2023/01/28 07:51:16;;;;;;;16.73;15.02;;;;;;;1.17;82.89;102986.97;5050272;28;20025;-77
2023/01/28 07:53:41;;;;;;;16.40;14.80;;;;;;;1.12;82.89;102989.56;5069311;28;20020;-77
2023/01/28 07:56:07;;;;;;;16.40;14.70;;;;;;;1.14;83.37;102993.00;5068521;28;20028;-76
2023/01/28 07:58:33;;;;;;;16.20;14.55;;;;;;;1.15;83.66;102997.34;5047144;28;20144;-77
2023/01/28 08:00:59;;;;;;;16.60;15.00;;;;;;;1.15;83.76;103001.66;5031218;28;20023;-81
2023/01/28 08:03:26;;;;;;;16.52;14.80;;;;;;;1.15;83.94;103005.13;5052522;28;20176;-78
2023/01/28 08:05:54;;;;;;;16.33;14.73;;;;;;;1.18;83.57;102997.34;5068291;28;20085;-78
2023/01/28 08:08:20;;;;;;;15.90;14.40;;;;;;;1.16;82.96;102999.06;5051531;28;20111;-79
2023/01/28 08:10:46;;;;;;;16.63;14.98;;;;;;;1.18;84.15;102994.75;5051553;28;20119;-79
2023/01/28 08:13:13;;;;;;;16.60;15.00;;;;;;;1.18;81.90;102992.16;5050343;28;20139;-79
2023/01/28 08:15:39;;;;;;;16.27;14.70;;;;;;;1.20;82.93;103008.59;5069305;28;20032;-78
2023/01/28 08:18:07;;;;;;;16.65;15.05;;;;;;;1.18;82.00;103014.63;5062241;28;20523;-79
2023/01/28 08:20:33;;;;;;;17.30;15.45;;;;;;;1.21;81.25;103012.91;5048622;28;20040;-79
2023/01/28 08:23:15;;;;;;;15.80;14.07;;;;;;;1.27;81.88;103024.16;5049513;28;20102;-79
2023/01/28 08:25:41;;;;;;;;;;;;;;;1.35;83.52;103027.59;5051557;28;20067;-79
2023/01/28 08:28:07;;;;;;;15.52;13.93;;;;;;;1.25;81.58;103042.31;5047924;28;19960;-78
2023/01/28 08:30:37;;;;;;;16.05;14.50;;;;;;;1.28;82.35;103031.06;5048819;28;20388;-78
2023/01/28 08:33:04;;;;;;;15.23;13.80;;;;;;;1.32;81.56;103028.47;5062777;28;20029;-79
2023/01/28 08:35:31;;;;;;;15.93;14.38;;;;;;;1.28;80.76;103031.94;5066833;28;20036;-79
2023/01/28 08:37:59;;;;;;;16.60;15.00;;;;;;;1.29;80.21;103031.06;5049533;28;20024;-79
2023/01/28 08:40:24;;;;;;;16.52;14.82;;;;;;;1.29;80.30;103027.59;5066324;28;20519;-78
2023/01/28 08:42:52;;;;;;;16.00;14.50;;;;;;;1.29;81.13;103032.78;5048244;28;20067;-78
2023/01/28 08:45:18;;;;;;;16.58;14.95;;;;;;;1.38;82.67;103037.97;5048709;28;20055;-79
2023/01/28 08:47:49;;;;;;;16.52;14.93;;;;;;;1.40;81.89;103046.59;5066092;28;20024;-78
2023/01/28 08:50:15;;;;;;;16.30;14.70;;;;;;;1.43;82.52;103036.22;5048764;28;20031;-78
2023/01/28 08:52:43;;;;;;;17.30;15.50;;;;;;;1.41;82.15;103036.22;5068124;28;20021;-79
2023/01/28 08:55:09;;;;;;;16.20;14.50;;;;;;;1.48;82.01;103042.28;5070615;28;20507;-79
2023/01/28 08:57:36;;;;;;;16.67;15.07;;;;;;;1.49;81.59;103047.47;5071960;28;20028;-79
2023/01/28 09:00:01;;;;;;;16.77;15.13;;;;;;;1.52;81.58;103047.44;5071702;28;20041;-79
2023/01/28 09:02:27;;;;;;;17.20;15.57;;;;;;;1.50;82.74;103048.31;5071036;28;20027;-79
2023/01/28 09:04:52;;;;;;;17.17;15.38;;;;;;;1.51;82.59;103056.09;5071172;28;20707;-79
2023/01/28 09:07:18;;;;;;;16.98;15.15;;;;;;;1.51;82.70;103056.09;5071593;28;20028;-78
2023/01/28 09:09:43;;;;;;;19.33;17.33;;;;;;;1.52;82.50;103046.59;5053533;28;20024;-79
2023/01/28 09:12:09;;;;;;;17.60;15.80;;;;;;;1.55;82.20;103054.38;5071433;28;20032;-79
2023/01/28 09:14:35;;;;;;;19.15;17.35;;;;;;;1.57;81.52;103050.03;5072791;28;20158;-78
2023/01/28 09:17:01;;;;;;;16.23;14.63;;;;;;;1.60;80.81;103064.72;5070958;28;20536;-79
2023/01/28 09:19:26;;;;;;;16.92;15.27;;;;;;;1.57;80.63;103056.09;5053289;28;20028;-78
2023/01/28 09:21:51;;;;;;;17.35;15.50;;;;;;;1.62;81.55;103073.41;5053217;28;20358;-78
2023/01/28 09:24:17;;;;;;;16.50;14.90;;;;;;;1.56;80.68;103076.84;5071299;28;20090;-79
2023/01/28 09:26:43;;;;;;;16.98;15.25;;;;;;;1.58;81.35;103062.13;5072364;28;20389;-79
2023/01/28 09:29:08;;;;;;;16.83;15.18;;;;;;;1.54;81.69;103056.09;5071869;28;20044;-79
2023/01/28 09:31:37;;;;;;;16.55;14.93;;;;;;;1.56;81.98;103063.88;5053575;28;20031;-79
2023/01/28 09:34:03;;;;;;;17.52;15.75;;;;;;;1.50;80.43;103074.25;5053824;28;20094;-79
2023/01/28 09:36:28;;;;;;;16.73;15.23;;;;;;;1.48;79.33;103076.84;5071634;28;20485;-79
2023/01/28 09:38:53;;;;;;;16.55;15.02;;;;;;;1.50;79.98;103089.81;5053144;28;20387;-79
2023/01/28 09:41:38;;;;;;;16.50;14.98;;;;;;;1.53;80.31;103089.81;5071818;28;20378;-78
2023/01/28 09:44:16;;;;;;;16.38;14.77;;;;;;;1.51;81.16;103089.81;5071080;28;20221;-79
2023/01/28 09:46:44;;;;;;;16.88;15.32;;;;;;;1.55;81.13;103091.53;5053727;28;20024;-78
2023/01/28 09:49:21;;;;;;;16.90;15.30;;;;;;;1.58;80.74;103091.53;5071288;28;20020;-79
2023/01/28 09:51:53;;;;;;;17.10;15.50;;;;;;;1.57;80.31;103081.16;5070600;28;20064;-79
2023/01/28 09:54:28;;;;;;;17.77;16.13;;;;;;;1.64;81.83;103082.06;5052652;28;20531;-78
2023/01/28 09:57:04;;;;;;;18.20;16.40;;;;;;;1.67;81.94;103093.28;5052640;28;20028;-79
2023/01/28 09:59:33;;;;;;;16.15;14.63;;;;;;;1.62;80.21;103095.03;5052288;28;20028;-78
2023/01/28 10:02:22;;;;;;;17.02;15.43;;;;;;;1.66;80.16;103088.97;5070039;28;20072;-78
2023/01/28 10:05:07;;;;;;;17.10;15.60;;;;;;;1.68;80.80;103089.84;5068960;28;20060;-79
2023/01/28 10:07:49;;;;;;;16.75;15.25;;;;;;;1.71;81.51;103100.22;5071117;28;20108;-79
2023/01/28 10:10:18;;;;;;;17.33;15.63;;;;;;;1.69;81.31;103112.31;5070654;28;20066;-79
2023/01/28 10:13:02;;;;;;;17.38;15.57;;;;;;;1.68;81.19;103100.22;5070075;28;20052;-79
2023/01/28 10:15:52;;;;;;;17.25;15.57;;;;;;;1.66;81.15;103111.47;5070434;28;20032;-79
2023/01/28 10:18:28;;;;;;;16.40;14.90;;;;;;;1.60;81.02;103107.09;5070192;28;20482;-78
2023/01/28 10:20:59;;;;;;;17.52;15.82;;;;;;;1.52;80.42;103116.63;5069401;28;20059;-79
2023/01/28 10:23:40;;;;;;;15.73;14.33;;;;;;;1.51;79.67;103117.50;5070240;28;20059;-78
2023/01/28 10:26:34;;;;;;;15.70;14.30;;;;;;;1.50;79.45;103116.63;5069352;28;20283;-79
2023/01/28 10:29:12;;;;;;;15.73;14.27;;;;;;;1.51;80.86;103120.09;5051527;28;20044;-79
2023/01/28 10:31:46;;;;;;;15.45;13.95;;;;;;;1.44;79.69;103116.63;5052025;28;20025;-79
2023/01/28 10:34:12;;;;;;;15.85;14.43;;;;;;;1.47;80.91;103118.34;5070077;28;20103;-78
2023/01/28 10:36:38;;;;;;;15.93;14.32;;;;;;;1.46;79.90;103114.03;5071476;28;20112;-79
2023/01/28 10:39:11;;;;;;;14.65;13.35;;;;;;;1.43;79.79;103103.66;5071355;28;20036;-79
2023/01/28 10:41:36;;;;;;;14.63;13.32;;;;;;;1.42;80.05;103104.53;5070466;28;20025;-79
2023/01/28 10:44:02;;;;;;;14.48;13.18;;;;;;;1.44;79.82;103105.38;5071151;28;20054;-78
2023/01/28 10:46:31;;;;;;;14.60;13.20;;;;;;;1.41;79.70;103110.59;5052459;28;20029;-79
2023/01/28 10:49:05;;;;;;;14.35;13.05;;;;;;;1.44;79.18;103105.38;5052589;28;20024;-79
2023/01/28 10:51:35;;;;;;;14.52;13.23;;;;;;;1.46;79.53;103104.53;5053241;28;20025;-79
2023/01/28 10:54:01;;;;;;;13.63;12.43;;;;;;;1.46;79.28;103099.34;5070687;28;20074;-79
2023/01/28 10:56:34;;;;;;;14.68;13.25;;;;;;;1.52;80.07;103099.34;5070273;28;20473;-79
2023/01/28 10:59:05;;;;;;;;;;;;;;;1.65;81.27;103099.34;5053237;28;20035;-79
2023/01/28 11:02:02;;;;;;;14.57;13.13;;;;;;;1.60;80.88;103096.72;5069744;28;19908;-79
2023/01/28 11:04:33;;;;;;;14.73;13.32;;;;;;;1.57;80.18;103100.19;5047681;28;20046;-79
2023/01/28 11:07:14;;;;;;;14.23;12.93;;;;;;;1.60;80.69;103109.69;5069495;28;20071;-78
2023/01/28 11:09:45;;;;;;;15.83;14.33;;;;;;;1.63;81.07;103106.28;5068855;28;20120;-79
2023/01/28 11:12:17;;;;;;;15.27;13.63;;;;;;;1.55;79.50;103108.84;5068921;28;20283;-78
2023/01/28 11:15:00;;;;;;;14.73;13.33;;;;;;;1.44;80.10;103106.25;5069857;28;20042;-79
2023/01/28 11:17:28;;;;;;;;;;;;;;;1.60;81.00;103104.50;5051106;28;20051;-78
2023/01/28 11:23:22;;;;;;;14.82;13.32;;;;;;;1.62;80.48;103079.47;5228970;22;20057;-90
2023/01/28 11:25:57;;;;;;;15.40;13.90;;;;;;;1.65;79.78;103084.66;5046963;28;20481;-90
2023/01/28 11:28:24;;;;;;;14.85;13.45;;;;;;;1.70;80.39;103082.91;5047573;28;20098;-91
2023/01/28 11:30:52;;;;;;;15.15;13.63;;;;;;;1.73;79.31;103072.53;5046333;28;20127;-85
2023/01/28 11:33:22;;;;;;;16.48;14.88;;;;;;;1.74;79.84;103068.19;5047473;28;20060;-90
2023/01/28 11:35:56;;;;;;;15.30;13.88;;;;;;;1.82;79.65;103056.06;5046971;28;20078;-90
2023/01/28 11:38:24;;;;;;;15.40;13.90;;;;;;;1.86;79.97;103060.38;5046626;28;20074;-91
2023/01/28 11:40:55;;;;;;;11.75;10.50;;;;;;;1.86;78.19;103061.25;5047017;28;20442;-90
2023/01/28 11:43:22;;;;;;;11.80;10.60;;;;;;;1.86;78.38;103052.59;5028546;28;20543;-85
2023/01/28 11:46:14;;;;;;;12.85;11.65;;;;;;;1.98;78.43;103056.88;5047656;28;20024;-91
2023/01/28 11:48:45;;;;;;;14.05;12.55;;;;;;;1.96;78.04;103050.81;5037059;28;20116;-90
2023/01/28 11:51:44;;;;;;;15.68;14.20;;;;;;;1.96;78.75;103043.03;5027497;28;20044;-90
2023/01/28 11:54:34;;;;;;;14.98;13.23;;;;;;;1.99;79.51;103033.50;5029273;28;20033;-90
2023/01/28 11:57:23;;;;;;;14.95;13.45;;;;;;;2.06;78.71;103021.41;5027552;28;20043;-91
2023/01/28 11:59:58;;;;;;;17.30;15.50;;;;;;;2.06;78.24;103009.28;5027018;28;20520;-90